sensor_id;sensor_type;location;lat;lon;timestamp;temperature;humidity
5164;DHT22;2601;50.224;10.126;2022-11-15T00:00:52;7.70;99.90
5164;DHT22;2601;50.224;10.126;2022-11-15T00:03:25;7.50;99.90
5164;DHT22;2601;50.224;10.126;2022-11-15T00:05:51;7.50;99.90
5164;DHT22;2601;50.224;10.126;2022-11-15T00:08:17;7.50;99.90
5164;DHT22;2601;50.224;10.126;2022-11-15T00:10:56;7.50;99.90
5164;DHT22;2601;50.224;10.126;2022-11-15T00:13:22;7.50;99.90
5164;DHT22;2601;50.224;10.126;2022-11-15T00:15:48;7.70;99.90
5164;DHT22;2601;50.224;10.126;2022-11-15T00:18:14;7.70;99.90
5164;DHT22;2601;50.224;10.126;2022-11-15T00:20:40;7.70;99.90
5164;DHT22;2601;50.224;10.126;2022-11-15T00:23:06;7.70;99.90
5164;DHT22;2601;50.224;10.126;2022-11-15T00:25:32;7.60;99.90
5164;DHT22;2601;50.224;10.126;2022-11-15T00:27:59;7.70;99.90
5164;DHT22;2601;50.224;10.126;2022-11-15T00:30:25;7.70;99.90
5164;DHT22;2601;50.224;10.126;2022-11-15T00:32:51;7.70;99.90
5164;DHT22;2601;50.224;10.126;2022-11-15T00:35:17;7.70;99.90
5164;DHT22;2601;50.224;10.126;2022-11-15T00:37:43;7.60;99.90
5164;DHT22;2601;50.224;10.126;2022-11-15T00:40:10;7.70;99.90
5164;DHT22;2601;50.224;10.126;2022-11-15T00:42:38;7.80;99.90
5164;DHT22;2601;50.224;10.126;2022-11-15T00:45:04;7.90;99.90
5164;DHT22;2601;50.224;10.126;2022-11-15T00:47:30;7.70;99.90
5164;DHT22;2601;50.224;10.126;2022-11-15T00:49:55;7.80;99.90
5164;DHT22;2601;50.224;10.126;2022-11-15T00:52:21;7.80;99.90
5164;DHT22;2601;50.224;10.126;2022-11-15T00:54:47;7.80;99.90
5164;DHT22;2601;50.224;10.126;2022-11-15T00:57:12;7.70;99.90
5164;DHT22;2601;50.224;10.126;2022-11-15T00:59:38;7.70;99.90
5164;DHT22;2601;50.224;10.126;2022-11-15T01:02:03;7.70;99.90
5164;DHT22;2601;50.224;10.126;2022-11-15T01:04:29;7.80;99.90
5164;DHT22;2601;50.224;10.126;2022-11-15T01:06:55;7.70;99.90
5164;DHT22;2601;50.224;10.126;2022-11-15T01:09:20;7.80;99.90
5164;DHT22;2601;50.224;10.126;2022-11-15T01:11:46;7.80;99.90
5164;DHT22;2601;50.224;10.126;2022-11-15T01:14:12;7.80;99.90
5164;DHT22;2601;50.224;10.126;2022-11-15T01:16:37;7.80;99.90
5164;DHT22;2601;50.224;10.126;2022-11-15T01:19:03;7.80;99.90
5164;DHT22;2601;50.224;10.126;2022-11-15T01:21:29;7.70;99.90
5164;DHT22;2601;50.224;10.126;2022-11-15T01:23:56;7.60;99.90
5164;DHT22;2601;50.224;10.126;2022-11-15T01:26:23;7.50;99.90
5164;DHT22;2601;50.224;10.126;2022-11-15T01:28:49;7.50;99.90
5164;DHT22;2601;50.224;10.126;2022-11-15T01:31:19;7.50;99.90
5164;DHT22;2601;50.224;10.126;2022-11-15T01:33:46;7.50;99.90
5164;DHT22;2601;50.224;10.126;2022-11-15T01:36:18;7.50;99.90
5164;DHT22;2601;50.224;10.126;2022-11-15T01:38:44;7.40;99.90
5164;DHT22;2601;50.224;10.126;2022-11-15T01:41:28;7.60;99.90
5164;DHT22;2601;50.224;10.126;2022-11-15T01:43:56;7.60;99.90
5164;DHT22;2601;50.224;10.126;2022-11-15T01:46:33;7.70;99.90
5164;DHT22;2601;50.224;10.126;2022-11-15T01:49:03;7.60;99.90
5164;DHT22;2601;50.224;10.126;2022-11-15T01:51:32;7.50;99.90
5164;DHT22;2601;50.224;10.126;2022-11-15T01:54:03;7.50;99.90
5164;DHT22;2601;50.224;10.126;2022-11-15T01:56:33;7.50;99.90
5164;DHT22;2601;50.224;10.126;2022-11-15T01:59:03;7.50;99.90
5164;DHT22;2601;50.224;10.126;2022-11-15T02:01:31;7.40;99.90
5164;DHT22;2601;50.224;10.126;2022-11-15T02:04:01;7.50;99.90
5164;DHT22;2601;50.224;10.126;2022-11-15T02:06:29;7.40;99.90
5164;DHT22;2601;50.224;10.126;2022-11-15T02:08:56;7.20;99.90
5164;DHT22;2601;50.224;10.126;2022-11-15T02:11:22;7.10;99.90
5164;DHT22;2601;50.224;10.126;2022-11-15T02:13:48;7.00;99.90
5164;DHT22;2601;50.224;10.126;2022-11-15T02:24:45;6.60;99.90
5164;DHT22;2601;50.224;10.126;2022-11-15T02:38:44;6.60;99.90
5164;DHT22;2601;50.224;10.126;2022-11-15T02:41:16;6.70;99.90
5164;DHT22;2601;50.224;10.126;2022-11-15T02:43:51;6.80;99.90
5164;DHT22;2601;50.224;10.126;2022-11-15T02:46:38;6.80;99.90
5164;DHT22;2601;50.224;10.126;2022-11-15T02:49:30;6.90;99.90
5164;DHT22;2601;50.224;10.126;2022-11-15T02:51:57;7.00;99.90
5164;DHT22;2601;50.224;10.126;2022-11-15T02:54:30;7.00;99.90
5164;DHT22;2601;50.224;10.126;2022-11-15T02:57:01;6.90;99.90
5164;DHT22;2601;50.224;10.126;2022-11-15T03:05:39;6.80;99.90
5164;DHT22;2601;50.224;10.126;2022-11-15T03:08:28;6.60;99.90
5164;DHT22;2601;50.224;10.126;2022-11-15T03:11:00;6.40;99.90
5164;DHT22;2601;50.224;10.126;2022-11-15T03:13:57;6.30;99.90
5164;DHT22;2601;50.224;10.126;2022-11-15T03:16:37;6.20;99.90
5164;DHT22;2601;50.224;10.126;2022-11-15T03:21:59;6.10;99.90
5164;DHT22;2601;50.224;10.126;2022-11-15T03:24:28;6.10;99.90
5164;DHT22;2601;50.224;10.126;2022-11-15T03:26:57;6.10;99.90
5164;DHT22;2601;50.224;10.126;2022-11-15T03:29:27;6.20;99.90
5164;DHT22;2601;50.224;10.126;2022-11-15T03:32:00;6.30;99.90
5164;DHT22;2601;50.224;10.126;2022-11-15T03:37:14;6.20;99.90
5164;DHT22;2601;50.224;10.126;2022-11-15T03:39:41;6.10;99.90
5164;DHT22;2601;50.224;10.126;2022-11-15T03:42:28;6.00;99.90
5164;DHT22;2601;50.224;10.126;2022-11-15T03:50:39;6.10;99.90
5164;DHT22;2601;50.224;10.126;2022-11-15T03:53:05;6.00;99.90
5164;DHT22;2601;50.224;10.126;2022-11-15T03:55:32;5.80;99.90
5164;DHT22;2601;50.224;10.126;2022-11-15T03:57:59;5.70;99.90
5164;DHT22;2601;50.224;10.126;2022-11-15T04:00:25;5.60;99.90
5164;DHT22;2601;50.224;10.126;2022-11-15T04:02:51;5.50;99.90
5164;DHT22;2601;50.224;10.126;2022-11-15T04:05:17;5.50;99.90
5164;DHT22;2601;50.224;10.126;2022-11-15T04:07:42;5.40;99.90
5164;DHT22;2601;50.224;10.126;2022-11-15T04:10:10;5.40;99.90
5164;DHT22;2601;50.224;10.126;2022-11-15T04:12:41;5.30;99.90
5164;DHT22;2601;50.224;10.126;2022-11-15T04:15:14;5.20;99.90
5164;DHT22;2601;50.224;10.126;2022-11-15T04:17:55;5.30;99.90
5164;DHT22;2601;50.224;10.126;2022-11-15T04:20:29;5.30;99.90
5164;DHT22;2601;50.224;10.126;2022-11-15T04:23:15;5.30;99.90
5164;DHT22;2601;50.224;10.126;2022-11-15T04:26:05;5.30;99.90
5164;DHT22;2601;50.224;10.126;2022-11-15T04:28:33;5.20;99.90
5164;DHT22;2601;50.224;10.126;2022-11-15T04:30:58;5.10;99.90
5164;DHT22;2601;50.224;10.126;2022-11-15T04:33:24;5.00;99.90
5164;DHT22;2601;50.224;10.126;2022-11-15T04:35:50;5.00;99.90
5164;DHT22;2601;50.224;10.126;2022-11-15T04:38:35;5.00;99.90
5164;DHT22;2601;50.224;10.126;2022-11-15T04:41:01;4.90;99.90
5164;DHT22;2601;50.224;10.126;2022-11-15T04:43:28;4.90;99.90
5164;DHT22;2601;50.224;10.126;2022-11-15T04:45:53;4.90;99.90
5164;DHT22;2601;50.224;10.126;2022-11-15T04:48:19;4.90;99.90
5164;DHT22;2601;50.224;10.126;2022-11-15T04:50:47;4.90;99.90
5164;DHT22;2601;50.224;10.126;2022-11-15T04:53:13;5.00;99.90
5164;DHT22;2601;50.224;10.126;2022-11-15T04:55:39;4.90;99.90
5164;DHT22;2601;50.224;10.126;2022-11-15T04:58:05;4.80;99.90
5164;DHT22;2601;50.224;10.126;2022-11-15T05:00:30;4.70;99.90
5164;DHT22;2601;50.224;10.126;2022-11-15T05:02:57;4.70;99.90
5164;DHT22;2601;50.224;10.126;2022-11-15T05:08:16;4.80;99.90
5164;DHT22;2601;50.224;10.126;2022-11-15T05:10:42;4.90;99.90
5164;DHT22;2601;50.224;10.126;2022-11-15T05:13:07;4.90;99.90
5164;DHT22;2601;50.224;10.126;2022-11-15T05:15:33;4.90;99.90
5164;DHT22;2601;50.224;10.126;2022-11-15T05:17:59;4.80;99.90
5164;DHT22;2601;50.224;10.126;2022-11-15T05:20:26;4.80;99.90
5164;DHT22;2601;50.224;10.126;2022-11-15T05:22:53;4.80;99.90
5164;DHT22;2601;50.224;10.126;2022-11-15T05:25:18;4.70;99.90
5164;DHT22;2601;50.224;10.126;2022-11-15T05:27:44;4.60;99.90
5164;DHT22;2601;50.224;10.126;2022-11-15T05:30:10;4.60;99.90
5164;DHT22;2601;50.224;10.126;2022-11-15T05:32:36;4.50;99.90
5164;DHT22;2601;50.224;10.126;2022-11-15T05:35:02;4.50;99.90
5164;DHT22;2601;50.224;10.126;2022-11-15T05:37:30;4.60;99.90
5164;DHT22;2601;50.224;10.126;2022-11-15T05:39:56;4.40;99.90
5164;DHT22;2601;50.224;10.126;2022-11-15T05:42:21;4.30;99.90
5164;DHT22;2601;50.224;10.126;2022-11-15T05:44:48;4.20;99.90
5164;DHT22;2601;50.224;10.126;2022-11-15T05:47:23;4.20;99.90
5164;DHT22;2601;50.224;10.126;2022-11-15T05:49:51;4.20;99.90
5164;DHT22;2601;50.224;10.126;2022-11-15T05:52:22;4.10;99.90
5164;DHT22;2601;50.224;10.126;2022-11-15T05:54:49;4.20;99.90
5164;DHT22;2601;50.224;10.126;2022-11-15T05:57:16;4.20;99.90
5164;DHT22;2601;50.224;10.126;2022-11-15T05:59:42;4.30;99.90
5164;DHT22;2601;50.224;10.126;2022-11-15T06:02:09;4.30;99.90
5164;DHT22;2601;50.224;10.126;2022-11-15T06:04:35;4.30;99.90
5164;DHT22;2601;50.224;10.126;2022-11-15T06:07:01;4.20;99.90
5164;DHT22;2601;50.224;10.126;2022-11-15T06:09:26;4.20;99.90
5164;DHT22;2601;50.224;10.126;2022-11-15T06:11:52;4.10;99.90
5164;DHT22;2601;50.224;10.126;2022-11-15T06:14:18;4.20;99.90
5164;DHT22;2601;50.224;10.126;2022-11-15T06:16:43;4.10;99.90
5164;DHT22;2601;50.224;10.126;2022-11-15T06:19:09;4.00;99.90
5164;DHT22;2601;50.224;10.126;2022-11-15T06:21:35;4.00;99.90
5164;DHT22;2601;50.224;10.126;2022-11-15T06:24:01;4.00;99.90
5164;DHT22;2601;50.224;10.126;2022-11-15T06:26:27;4.00;99.90
5164;DHT22;2601;50.224;10.126;2022-11-15T06:28:52;3.90;99.90
5164;DHT22;2601;50.224;10.126;2022-11-15T06:31:19;4.00;99.90
5164;DHT22;2601;50.224;10.126;2022-11-15T06:33:46;4.10;99.90
5164;DHT22;2601;50.224;10.126;2022-11-15T06:36:12;4.20;99.90
5164;DHT22;2601;50.224;10.126;2022-11-15T06:38:44;4.30;99.90
5164;DHT22;2601;50.224;10.126;2022-11-15T06:41:11;4.30;99.90
5164;DHT22;2601;50.224;10.126;2022-11-15T06:43:38;4.30;99.90
5164;DHT22;2601;50.224;10.126;2022-11-15T06:46:04;4.40;99.90
5164;DHT22;2601;50.224;10.126;2022-11-15T06:48:31;4.30;99.90
5164;DHT22;2601;50.224;10.126;2022-11-15T06:50:58;4.40;99.90
5164;DHT22;2601;50.224;10.126;2022-11-15T06:53:25;4.30;99.90
5164;DHT22;2601;50.224;10.126;2022-11-15T06:55:51;4.30;99.90
5164;DHT22;2601;50.224;10.126;2022-11-15T06:58:17;4.40;99.90
5164;DHT22;2601;50.224;10.126;2022-11-15T07:00:43;4.40;99.90
5164;DHT22;2601;50.224;10.126;2022-11-15T07:03:09;4.50;99.90
5164;DHT22;2601;50.224;10.126;2022-11-15T07:05:35;4.60;99.90
5164;DHT22;2601;50.224;10.126;2022-11-15T07:08:02;4.60;99.90
5164;DHT22;2601;50.224;10.126;2022-11-15T07:10:28;4.50;99.90
5164;DHT22;2601;50.224;10.126;2022-11-15T07:12:55;4.60;99.90
5164;DHT22;2601;50.224;10.126;2022-11-15T07:15:23;4.60;99.90
5164;DHT22;2601;50.224;10.126;2022-11-15T07:17:49;4.60;99.90
5164;DHT22;2601;50.224;10.126;2022-11-15T07:20:15;4.70;99.90
5164;DHT22;2601;50.224;10.126;2022-11-15T07:22:41;4.70;99.90
5164;DHT22;2601;50.224;10.126;2022-11-15T07:25:08;4.60;99.90
5164;DHT22;2601;50.224;10.126;2022-11-15T07:27:34;4.60;99.90
5164;DHT22;2601;50.224;10.126;2022-11-15T07:30:00;4.60;99.90
5164;DHT22;2601;50.224;10.126;2022-11-15T07:32:26;4.80;99.90
5164;DHT22;2601;50.224;10.126;2022-11-15T07:34:52;5.00;99.90
5164;DHT22;2601;50.224;10.126;2022-11-15T07:37:18;5.00;99.90
5164;DHT22;2601;50.224;10.126;2022-11-15T07:39:44;5.00;99.90
5164;DHT22;2601;50.224;10.126;2022-11-15T07:42:10;5.00;99.90
5164;DHT22;2601;50.224;10.126;2022-11-15T07:44:54;5.00;99.90
5164;DHT22;2601;50.224;10.126;2022-11-15T07:47:20;5.00;99.90
5164;DHT22;2601;50.224;10.126;2022-11-15T07:49:46;5.00;99.90
5164;DHT22;2601;50.224;10.126;2022-11-15T07:52:13;5.00;99.90
5164;DHT22;2601;50.224;10.126;2022-11-15T07:54:39;5.20;99.90
5164;DHT22;2601;50.224;10.126;2022-11-15T07:57:05;5.30;99.90
5164;DHT22;2601;50.224;10.126;2022-11-15T07:59:32;5.40;99.90
5164;DHT22;2601;50.224;10.126;2022-11-15T08:01:58;5.50;99.90
5164;DHT22;2601;50.224;10.126;2022-11-15T08:04:24;5.50;99.90
5164;DHT22;2601;50.224;10.126;2022-11-15T08:06:49;5.50;99.90
5164;DHT22;2601;50.224;10.126;2022-11-15T08:09:15;5.60;99.90
5164;DHT22;2601;50.224;10.126;2022-11-15T08:11:41;5.60;99.90
5164;DHT22;2601;50.224;10.126;2022-11-15T08:14:07;5.70;99.90
5164;DHT22;2601;50.224;10.126;2022-11-15T08:16:32;5.80;99.90
5164;DHT22;2601;50.224;10.126;2022-11-15T08:18:58;5.90;99.90
5164;DHT22;2601;50.224;10.126;2022-11-15T08:21:24;5.90;99.90
5164;DHT22;2601;50.224;10.126;2022-11-15T08:23:50;6.10;99.90
5164;DHT22;2601;50.224;10.126;2022-11-15T08:26:16;6.20;99.90
5164;DHT22;2601;50.224;10.126;2022-11-15T08:28:42;6.20;99.90
5164;DHT22;2601;50.224;10.126;2022-11-15T08:31:17;6.40;99.90
5164;DHT22;2601;50.224;10.126;2022-11-15T08:33:43;6.50;99.90
5164;DHT22;2601;50.224;10.126;2022-11-15T08:36:13;6.70;99.90
5164;DHT22;2601;50.224;10.126;2022-11-15T08:38:40;7.10;99.90
5164;DHT22;2601;50.224;10.126;2022-11-15T08:41:05;7.70;99.90
5164;DHT22;2601;50.224;10.126;2022-11-15T08:43:32;8.70;99.90
5164;DHT22;2601;50.224;10.126;2022-11-15T08:45:58;9.10;99.90
5164;DHT22;2601;50.224;10.126;2022-11-15T08:48:24;9.50;99.90
5164;DHT22;2601;50.224;10.126;2022-11-15T08:50:54;10.20;99.90
5164;DHT22;2601;50.224;10.126;2022-11-15T08:53:21;11.00;99.90
5164;DHT22;2601;50.224;10.126;2022-11-15T08:55:46;11.20;99.90
5164;DHT22;2601;50.224;10.126;2022-11-15T08:58:12;11.00;99.90
5164;DHT22;2601;50.224;10.126;2022-11-15T09:00:38;11.10;99.90
5164;DHT22;2601;50.224;10.126;2022-11-15T09:03:05;11.10;99.90
5164;DHT22;2601;50.224;10.126;2022-11-15T09:05:32;10.90;99.90
5164;DHT22;2601;50.224;10.126;2022-11-15T09:07:58;11.10;99.90
5164;DHT22;2601;50.224;10.126;2022-11-15T09:10:23;11.50;99.90
5164;DHT22;2601;50.224;10.126;2022-11-15T09:12:50;12.10;99.90
5164;DHT22;2601;50.224;10.126;2022-11-15T09:15:16;12.50;99.90
5164;DHT22;2601;50.224;10.126;2022-11-15T09:17:42;12.60;99.90
5164;DHT22;2601;50.224;10.126;2022-11-15T09:20:08;12.80;99.90
5164;DHT22;2601;50.224;10.126;2022-11-15T09:22:35;13.00;99.90
5164;DHT22;2601;50.224;10.126;2022-11-15T09:25:02;13.00;99.90
5164;DHT22;2601;50.224;10.126;2022-11-15T09:27:29;13.10;99.90
5164;DHT22;2601;50.224;10.126;2022-11-15T09:29:55;13.10;99.90
5164;DHT22;2601;50.224;10.126;2022-11-15T09:32:21;13.30;99.90
5164;DHT22;2601;50.224;10.126;2022-11-15T09:34:51;13.40;99.90
5164;DHT22;2601;50.224;10.126;2022-11-15T09:37:17;13.70;99.90
5164;DHT22;2601;50.224;10.126;2022-11-15T09:39:43;14.50;99.90
5164;DHT22;2601;50.224;10.126;2022-11-15T09:48:00;14.70;99.90
5164;DHT22;2601;50.224;10.126;2022-11-15T09:50:40;14.90;99.90
5164;DHT22;2601;50.224;10.126;2022-11-15T09:53:14;15.10;99.90
5164;DHT22;2601;50.224;10.126;2022-11-15T09:58:40;15.20;99.90
5164;DHT22;2601;50.224;10.126;2022-11-15T10:01:19;15.60;99.90
5164;DHT22;2601;50.224;10.126;2022-11-15T10:03:46;15.60;99.90
5164;DHT22;2601;50.224;10.126;2022-11-15T10:06:24;16.10;99.90
5164;DHT22;2601;50.224;10.126;2022-11-15T10:09:09;16.40;99.90
5164;DHT22;2601;50.224;10.126;2022-11-15T10:11:38;16.10;99.90
5164;DHT22;2601;50.224;10.126;2022-11-15T10:14:11;16.10;99.90
5164;DHT22;2601;50.224;10.126;2022-11-15T10:22:35;16.60;99.90
5164;DHT22;2601;50.224;10.126;2022-11-15T10:25:20;17.50;98.90
5164;DHT22;2601;50.224;10.126;2022-11-15T10:28:14;17.70;98.70
5164;DHT22;2601;50.224;10.126;2022-11-15T10:30:56;17.00;98.60
5164;DHT22;2601;50.224;10.126;2022-11-15T10:33:36;16.80;99.20
5164;DHT22;2601;50.224;10.126;2022-11-15T10:49:24;16.60;99.90
5164;DHT22;2601;50.224;10.126;2022-11-15T10:52:13;16.90;98.70
5164;DHT22;2601;50.224;10.126;2022-11-15T10:57:31;16.90;99.50
5164;DHT22;2601;50.224;10.126;2022-11-15T11:00:02;17.20;98.70
5164;DHT22;2601;50.224;10.126;2022-11-15T11:04:54;17.60;98.40
5164;DHT22;2601;50.224;10.126;2022-11-15T11:07:25;17.80;97.10
5164;DHT22;2601;50.224;10.126;2022-11-15T11:10:17;17.60;97.70
5164;DHT22;2601;50.224;10.126;2022-11-15T11:12:43;17.40;98.00
5164;DHT22;2601;50.224;10.126;2022-11-15T11:15:14;16.80;98.30
5164;DHT22;2601;50.224;10.126;2022-11-15T11:17:49;16.80;98.90
5164;DHT22;2601;50.224;10.126;2022-11-15T11:23:16;16.10;99.90
5164;DHT22;2601;50.224;10.126;2022-11-15T11:25:53;15.40;99.90
5164;DHT22;2601;50.224;10.126;2022-11-15T11:28:42;14.90;99.90
5164;DHT22;2601;50.224;10.126;2022-11-15T11:42:17;14.40;99.90
5164;DHT22;2601;50.224;10.126;2022-11-15T11:47:39;14.70;99.90
5164;DHT22;2601;50.224;10.126;2022-11-15T11:50:11;14.50;99.90
5164;DHT22;2601;50.224;10.126;2022-11-15T11:55:32;14.40;99.90
5164;DHT22;2601;50.224;10.126;2022-11-15T11:58:24;14.20;99.90
5164;DHT22;2601;50.224;10.126;2022-11-15T12:03:38;13.70;99.90
5164;DHT22;2601;50.224;10.126;2022-11-15T12:06:26;13.30;99.90
5164;DHT22;2601;50.224;10.126;2022-11-15T12:08:59;13.10;99.90
5164;DHT22;2601;50.224;10.126;2022-11-15T12:11:54;13.00;99.90
5164;DHT22;2601;50.224;10.126;2022-11-15T12:16:52;13.30;99.90
5164;DHT22;2601;50.224;10.126;2022-11-15T12:19:17;13.30;99.90
5164;DHT22;2601;50.224;10.126;2022-11-15T12:22:32;13.10;99.90
5164;DHT22;2601;50.224;10.126;2022-11-15T12:30:14;13.60;99.90
5164;DHT22;2601;50.224;10.126;2022-11-15T12:32:58;13.90;99.90
5164;DHT22;2601;50.224;10.126;2022-11-15T12:35:41;14.20;99.90
5164;DHT22;2601;50.224;10.126;2022-11-15T12:41:16;14.10;99.90
5164;DHT22;2601;50.224;10.126;2022-11-15T12:43:44;14.50;99.90
5164;DHT22;2601;50.224;10.126;2022-11-15T12:46:23;14.60;99.90
5164;DHT22;2601;50.224;10.126;2022-11-15T12:49:21;14.50;99.90
5164;DHT22;2601;50.224;10.126;2022-11-15T12:59:52;15.30;99.90
5164;DHT22;2601;50.224;10.126;2022-11-15T13:02:25;15.20;99.90
5164;DHT22;2601;50.224;10.126;2022-11-15T13:04:54;15.10;99.90
5164;DHT22;2601;50.224;10.126;2022-11-15T13:10:28;16.00;99.90
5164;DHT22;2601;50.224;10.126;2022-11-15T13:12:48;16.30;99.90
5164;DHT22;2601;50.224;10.126;2022-11-15T13:30:48;14.20;99.90
5164;DHT22;2601;50.224;10.126;2022-11-15T13:33:30;14.00;99.90
5164;DHT22;2601;50.224;10.126;2022-11-15T13:35:59;13.70;99.90
5164;DHT22;2601;50.224;10.126;2022-11-15T13:38:29;13.60;99.90
5164;DHT22;2601;50.224;10.126;2022-11-15T13:40:56;13.50;99.90
5164;DHT22;2601;50.224;10.126;2022-11-15T13:46:11;13.10;99.90
5164;DHT22;2601;50.224;10.126;2022-11-15T13:48:38;12.90;99.90
5164;DHT22;2601;50.224;10.126;2022-11-15T13:51:22;12.90;99.90
5164;DHT22;2601;50.224;10.126;2022-11-15T13:53:58;12.80;99.90
5164;DHT22;2601;50.224;10.126;2022-11-15T13:56:27;12.70;99.90
5164;DHT22;2601;50.224;10.126;2022-11-15T13:58:54;12.80;99.90
5164;DHT22;2601;50.224;10.126;2022-11-15T14:01:21;12.90;99.90
5164;DHT22;2601;50.224;10.126;2022-11-15T14:03:50;13.00;99.90
5164;DHT22;2601;50.224;10.126;2022-11-15T14:06:20;12.90;99.90
5164;DHT22;2601;50.224;10.126;2022-11-15T14:11:30;13.00;99.90
5164;DHT22;2601;50.224;10.126;2022-11-15T14:17:03;13.10;99.90
5164;DHT22;2601;50.224;10.126;2022-11-15T14:24:35;12.80;99.90
5164;DHT22;2601;50.224;10.126;2022-11-15T14:27:27;12.80;99.90
5164;DHT22;2601;50.224;10.126;2022-11-15T14:29:54;12.60;99.90
5164;DHT22;2601;50.224;10.126;2022-11-15T14:32:22;12.60;99.90
5164;DHT22;2601;50.224;10.126;2022-11-15T14:34:49;12.60;99.90
5164;DHT22;2601;50.224;10.126;2022-11-15T14:37:20;12.60;99.90
5164;DHT22;2601;50.224;10.126;2022-11-15T14:39:46;12.60;99.90
5164;DHT22;2601;50.224;10.126;2022-11-15T14:42:12;12.70;99.90
5164;DHT22;2601;50.224;10.126;2022-11-15T14:44:37;12.80;99.90
5164;DHT22;2601;50.224;10.126;2022-11-15T14:47:03;12.60;99.90
5164;DHT22;2601;50.224;10.126;2022-11-15T14:49:28;12.50;99.90
5164;DHT22;2601;50.224;10.126;2022-11-15T14:51:54;12.40;99.90
5164;DHT22;2601;50.224;10.126;2022-11-15T14:54:19;12.10;99.90
5164;DHT22;2601;50.224;10.126;2022-11-15T14:56:45;11.90;99.90
5164;DHT22;2601;50.224;10.126;2022-11-15T14:59:10;11.70;99.90
5164;DHT22;2601;50.224;10.126;2022-11-15T15:01:36;11.60;99.90
5164;DHT22;2601;50.224;10.126;2022-11-15T15:04:02;11.50;99.90
5164;DHT22;2601;50.224;10.126;2022-11-15T15:06:27;11.40;99.90
5164;DHT22;2601;50.224;10.126;2022-11-15T15:08:53;11.20;99.90
5164;DHT22;2601;50.224;10.126;2022-11-15T15:11:23;11.10;99.90
5164;DHT22;2601;50.224;10.126;2022-11-15T15:13:50;11.00;99.90
5164;DHT22;2601;50.224;10.126;2022-11-15T15:16:15;10.90;99.90
5164;DHT22;2601;50.224;10.126;2022-11-15T15:18:41;10.80;99.90
5164;DHT22;2601;50.224;10.126;2022-11-15T15:21:20;10.80;99.90
5164;DHT22;2601;50.224;10.126;2022-11-15T15:23:46;10.70;99.90
5164;DHT22;2601;50.224;10.126;2022-11-15T15:26:12;10.60;99.90
5164;DHT22;2601;50.224;10.126;2022-11-15T15:28:37;10.50;99.90
5164;DHT22;2601;50.224;10.126;2022-11-15T15:31:04;10.40;99.90
5164;DHT22;2601;50.224;10.126;2022-11-15T15:33:31;10.40;99.90
5164;DHT22;2601;50.224;10.126;2022-11-15T15:35:56;10.40;99.90
5164;DHT22;2601;50.224;10.126;2022-11-15T15:38:22;10.50;99.90
5164;DHT22;2601;50.224;10.126;2022-11-15T15:40:48;10.40;99.90
5164;DHT22;2601;50.224;10.126;2022-11-15T15:43:13;10.30;99.90
5164;DHT22;2601;50.224;10.126;2022-11-15T15:45:40;10.20;99.90
5164;DHT22;2601;50.224;10.126;2022-11-15T15:48:14;10.00;99.90
5164;DHT22;2601;50.224;10.126;2022-11-15T15:50:39;9.90;99.90
5164;DHT22;2601;50.224;10.126;2022-11-15T15:53:05;9.80;99.90
5164;DHT22;2601;50.224;10.126;2022-11-15T15:55:33;9.90;99.90
5164;DHT22;2601;50.224;10.126;2022-11-15T15:58:00;10.00;99.90
5164;DHT22;2601;50.224;10.126;2022-11-15T16:00:25;10.00;99.90
5164;DHT22;2601;50.224;10.126;2022-11-15T16:02:52;9.90;99.90
5164;DHT22;2601;50.224;10.126;2022-11-15T16:05:18;9.80;99.90
5164;DHT22;2601;50.224;10.126;2022-11-15T16:07:44;9.80;99.90
5164;DHT22;2601;50.224;10.126;2022-11-15T16:10:17;10.00;99.90
5164;DHT22;2601;50.224;10.126;2022-11-15T16:12:43;10.00;99.90
5164;DHT22;2601;50.224;10.126;2022-11-15T16:15:09;10.10;99.90
5164;DHT22;2601;50.224;10.126;2022-11-15T16:17:38;10.10;99.90
5164;DHT22;2601;50.224;10.126;2022-11-15T16:20:05;10.10;99.90
5164;DHT22;2601;50.224;10.126;2022-11-15T16:22:31;10.00;99.90
5164;DHT22;2601;50.224;10.126;2022-11-15T16:24:57;9.90;99.90
5164;DHT22;2601;50.224;10.126;2022-11-15T16:27:23;9.80;99.90
5164;DHT22;2601;50.224;10.126;2022-11-15T16:29:49;9.70;99.90
5164;DHT22;2601;50.224;10.126;2022-11-15T16:32:15;9.60;99.90
5164;DHT22;2601;50.224;10.126;2022-11-15T16:34:41;9.60;99.90
5164;DHT22;2601;50.224;10.126;2022-11-15T16:37:22;9.50;99.90
5164;DHT22;2601;50.224;10.126;2022-11-15T16:39:48;9.50;99.90
5164;DHT22;2601;50.224;10.126;2022-11-15T16:42:14;9.40;99.90
5164;DHT22;2601;50.224;10.126;2022-11-15T16:44:39;9.30;99.90
5164;DHT22;2601;50.224;10.126;2022-11-15T16:47:17;9.30;99.90
5164;DHT22;2601;50.224;10.126;2022-11-15T16:49:44;9.20;99.90
5164;DHT22;2601;50.224;10.126;2022-11-15T16:52:10;9.30;99.90
5164;DHT22;2601;50.224;10.126;2022-11-15T16:54:36;9.20;99.90
5164;DHT22;2601;50.224;10.126;2022-11-15T16:57:01;9.10;99.90
5164;DHT22;2601;50.224;10.126;2022-11-15T16:59:27;9.00;99.90
5164;DHT22;2601;50.224;10.126;2022-11-15T17:01:52;9.00;99.90
5164;DHT22;2601;50.224;10.126;2022-11-15T17:04:19;9.00;99.90
5164;DHT22;2601;50.224;10.126;2022-11-15T17:06:47;9.00;99.90
5164;DHT22;2601;50.224;10.126;2022-11-15T17:09:18;8.90;99.90
5164;DHT22;2601;50.224;10.126;2022-11-15T17:11:44;8.90;99.90
5164;DHT22;2601;50.224;10.126;2022-11-15T17:14:11;8.90;99.90
5164;DHT22;2601;50.224;10.126;2022-11-15T17:16:37;8.90;99.90
5164;DHT22;2601;50.224;10.126;2022-11-15T17:19:16;8.90;99.90
5164;DHT22;2601;50.224;10.126;2022-11-15T17:21:43;8.90;99.90
5164;DHT22;2601;50.224;10.126;2022-11-15T17:24:09;9.00;99.90
5164;DHT22;2601;50.224;10.126;2022-11-15T17:26:36;8.90;99.90
5164;DHT22;2601;50.224;10.126;2022-11-15T17:29:02;8.90;99.90
5164;DHT22;2601;50.224;10.126;2022-11-15T17:31:32;8.90;99.90
5164;DHT22;2601;50.224;10.126;2022-11-15T17:33:59;9.00;99.90
5164;DHT22;2601;50.224;10.126;2022-11-15T17:36:25;8.90;99.90
5164;DHT22;2601;50.224;10.126;2022-11-15T17:38:51;9.00;99.90
5164;DHT22;2601;50.224;10.126;2022-11-15T17:41:17;8.90;99.90
5164;DHT22;2601;50.224;10.126;2022-11-15T17:43:43;8.80;99.90
5164;DHT22;2601;50.224;10.126;2022-11-15T17:46:17;8.80;99.90
5164;DHT22;2601;50.224;10.126;2022-11-15T17:48:44;8.90;99.90
5164;DHT22;2601;50.224;10.126;2022-11-15T17:51:12;8.80;99.90
5164;DHT22;2601;50.224;10.126;2022-11-15T17:53:40;8.60;99.90
5164;DHT22;2601;50.224;10.126;2022-11-15T17:56:15;8.60;99.90
5164;DHT22;2601;50.224;10.126;2022-11-15T17:58:46;8.60;99.90
5164;DHT22;2601;50.224;10.126;2022-11-15T18:01:17;8.60;99.90
5164;DHT22;2601;50.224;10.126;2022-11-15T18:03:44;8.60;99.90
5164;DHT22;2601;50.224;10.126;2022-11-15T18:06:10;8.60;99.90
5164;DHT22;2601;50.224;10.126;2022-11-15T18:08:37;8.40;99.90
5164;DHT22;2601;50.224;10.126;2022-11-15T18:11:14;8.30;99.90
5164;DHT22;2601;50.224;10.126;2022-11-15T18:13:42;8.10;99.90
5164;DHT22;2601;50.224;10.126;2022-11-15T18:16:13;8.10;99.90
5164;DHT22;2601;50.224;10.126;2022-11-15T18:18:40;8.00;99.90
5164;DHT22;2601;50.224;10.126;2022-11-15T18:21:09;7.90;99.90
5164;DHT22;2601;50.224;10.126;2022-11-15T18:23:35;7.90;99.90
5164;DHT22;2601;50.224;10.126;2022-11-15T18:26:03;7.80;99.90
5164;DHT22;2601;50.224;10.126;2022-11-15T18:28:34;7.80;99.90
5164;DHT22;2601;50.224;10.126;2022-11-15T18:31:00;7.80;99.90
5164;DHT22;2601;50.224;10.126;2022-11-15T18:33:27;7.90;99.90
5164;DHT22;2601;50.224;10.126;2022-11-15T18:36:04;7.80;99.90